createdAt,value
2023-11-04T00:00:56.028Z,8.57
2023-11-04T00:05:05.018Z,8.54
2023-11-04T00:09:09.150Z,8.57
2023-11-04T00:13:14.056Z,8.60
2023-11-04T00:17:15.632Z,8.63
2023-11-04T00:21:17.230Z,8.63
2023-11-04T00:25:18.825Z,8.63
2023-11-04T00:29:20.426Z,8.67
2023-11-04T00:33:23.711Z,8.71
2023-11-04T00:37:25.996Z,8.68
2023-11-04T00:41:27.540Z,8.67
2023-11-04T00:45:29.752Z,8.68
2023-11-04T00:49:31.459Z,8.70
2023-11-04T00:53:33.786Z,8.75
2023-11-04T00:57:35.693Z,8.73
2023-11-04T01:01:37.316Z,8.75
2023-11-04T01:05:39.309Z,8.75
2023-11-04T01:09:41.085Z,8.75
2023-11-04T01:13:42.692Z,8.71
2023-11-04T01:17:44.330Z,8.70
2023-11-04T01:21:46.088Z,8.75
2023-11-04T01:25:47.703Z,8.76
2023-11-04T01:29:51.862Z,8.79
2023-11-04T01:33:54.211Z,8.78
2023-11-04T01:37:55.916Z,8.78
2023-11-04T01:42:05.840Z,8.79
2023-11-04T01:46:07.492Z,8.80
2023-11-04T01:50:09.970Z,8.85
2023-11-04T01:54:11.657Z,8.86
2023-11-04T01:58:13.311Z,8.88
2023-11-04T02:02:17.197Z,8.89
2023-11-04T02:06:18.974Z,8.91
2023-11-04T02:10:21.327Z,8.88
2023-11-04T02:14:24.068Z,8.85
2023-11-04T02:18:25.859Z,8.78
2023-11-04T02:22:28.801Z,8.73
2023-11-04T02:26:30.447Z,8.67
2023-11-04T02:30:32.987Z,8.63
2023-11-04T02:34:34.735Z,8.60
2023-11-04T02:38:36.357Z,8.60
2023-11-04T02:42:38.481Z,8.58
2023-11-04T02:46:40.047Z,8.58
2023-11-04T02:50:41.839Z,8.58
2023-11-04T02:54:43.445Z,8.55
2023-11-04T02:58:45.178Z,8.57
2023-11-04T03:02:46.917Z,8.58
2023-11-04T03:06:48.649Z,8.58
2023-11-04T03:10:50.286Z,8.60
2023-11-04T03:14:51.907Z,8.61
2023-11-04T03:18:53.632Z,8.63
2023-11-04T03:22:55.252Z,8.63
2023-11-04T03:26:56.868Z,8.65
2023-11-04T03:30:58.435Z,8.67
2023-11-04T03:35:00.009Z,8.67
2023-11-04T03:39:01.613Z,8.68
2023-11-04T03:43:03.930Z,8.70
2023-11-04T03:47:05.863Z,8.71
2023-11-04T03:51:09.392Z,8.73
2023-11-04T03:55:11.019Z,8.73
2023-11-04T03:59:13.677Z,8.75
2023-11-04T04:03:15.522Z,8.78
2023-11-04T04:07:17.300Z,8.76
2023-11-04T04:11:24.055Z,8.73
2023-11-04T04:15:25.927Z,8.67
2023-11-04T04:19:27.550Z,8.61
2023-11-04T04:23:29.128Z,8.58
2023-11-04T04:27:31.423Z,8.55
2023-11-04T04:31:33.042Z,8.49
2023-11-04T04:35:36.030Z,8.45
2023-11-04T04:39:38.359Z,8.43
2023-11-04T04:43:40.021Z,8.40
2023-11-04T04:47:41.649Z,8.40
2023-11-04T04:51:43.404Z,8.43
2023-11-04T04:55:45.086Z,8.47
2023-11-04T04:59:46.632Z,8.54
2023-11-04T05:03:48.352Z,8.60
2023-11-04T05:07:50.018Z,8.65
2023-11-04T05:11:53.546Z,8.71
2023-11-04T05:15:55.836Z,8.75
2023-11-04T05:19:57.450Z,8.78
2023-11-04T05:23:59.070Z,8.80
2023-11-04T05:28:00.780Z,8.82
2023-11-04T05:32:02.571Z,8.82
2023-11-04T05:36:04.553Z,8.79
2023-11-04T05:40:07.095Z,8.78
2023-11-04T05:44:08.936Z,8.75
2023-11-04T05:48:10.641Z,8.70
2023-11-04T05:52:12.270Z,8.61
2023-11-04T05:56:18.303Z,8.55
2023-11-04T06:00:19.925Z,8.45
2023-11-04T06:04:22.210Z,8.32
2023-11-04T06:08:24.526Z,8.27
2023-11-04T06:12:26.582Z,8.25
2023-11-04T06:16:34.775Z,8.25
2023-11-04T06:20:36.377Z,8.24
2023-11-04T06:24:41.173Z,8.25
2023-11-04T06:28:42.789Z,8.24
2023-11-04T06:32:44.460Z,8.25
2023-11-04T06:36:46.129Z,8.25
2023-11-04T06:40:47.725Z,8.28
2023-11-04T06:44:49.350Z,8.29
2023-11-04T06:48:53.070Z,8.29
2023-11-04T06:52:54.712Z,8.29
2023-11-04T06:56:56.364Z,8.28
2023-11-04T07:01:01.362Z,8.27
2023-11-04T07:05:03.219Z,8.29
2023-11-04T07:09:05.622Z,8.34
2023-11-04T07:13:12.818Z,8.40
2023-11-04T07:17:14.613Z,8.49
2023-11-04T07:21:16.197Z,8.55
2023-11-04T07:25:17.812Z,8.64
2023-11-04T07:29:19.731Z,8.68
2023-11-04T07:33:22.131Z,8.73
2023-11-04T07:37:25.577Z,8.82
2023-11-04T07:41:27.464Z,8.86
2023-11-04T07:45:29.970Z,8.98
2023-11-04T07:49:31.692Z,9.10
2023-11-04T07:53:33.255Z,9.17
2023-11-04T07:57:36.941Z,9.26
2023-11-04T08:01:38.545Z,9.32
2023-11-04T08:05:42.791Z,9.40
2023-11-04T08:09:44.489Z,9.49
2023-11-04T08:13:46.392Z,9.50
2023-11-04T08:17:48.310Z,9.53
2023-11-04T08:21:52.956Z,9.56
2023-11-04T08:25:54.825Z,9.59
2023-11-04T08:29:56.454Z,9.62
2023-11-04T08:33:59.654Z,9.67
2023-11-04T08:38:02.493Z,9.81
2023-11-04T08:42:04.553Z,9.92
2023-11-04T08:46:06.615Z,10.01
2023-11-04T08:50:09.175Z,10.16
2023-11-04T08:54:14.540Z,10.25
2023-11-04T08:58:16.259Z,10.35
2023-11-04T09:02:17.963Z,10.43
2023-11-04T09:06:19.819Z,10.49
2023-11-04T09:10:22.161Z,10.54
2023-11-04T09:14:24.822Z,10.62
2023-11-04T09:18:26.513Z,10.70
2023-11-04T09:22:28.108Z,10.83
2023-11-04T09:26:29.733Z,10.90
2023-11-04T09:30:31.430Z,10.95
2023-11-04T09:34:33.194Z,11.11
2023-11-04T09:38:35.204Z,11.23
2023-11-04T09:42:37.283Z,11.27
2023-11-04T09:46:39.081Z,11.27
2023-11-04T09:50:40.844Z,11.27
2023-11-04T09:54:47.731Z,11.35
2023-11-04T09:58:52.967Z,11.42
2023-11-04T10:02:54.655Z,11.46
2023-11-04T10:06:56.327Z,11.49
2023-11-04T10:10:59.093Z,11.49
2023-11-04T10:15:00.688Z,11.51
2023-11-04T10:19:02.505Z,11.49
2023-11-04T10:23:04.279Z,11.48
2023-11-04T10:27:05.913Z,11.46
2023-11-04T10:31:07.940Z,11.48
2023-11-04T10:35:13.515Z,11.62
2023-11-04T10:39:18.736Z,11.82
2023-11-04T10:43:25.289Z,11.96
2023-11-04T10:47:59.883Z,11.94
2023-11-04T10:52:07.718Z,11.87
2023-11-04T10:56:21.953Z,11.75
2023-11-04T11:00:27.248Z,11.60
2023-11-04T11:04:32.728Z,11.48
2023-11-04T11:08:34.385Z,11.39
2023-11-04T11:12:43.738Z,11.35
2023-11-04T11:16:45.387Z,11.44
2023-11-04T11:20:47.025Z,11.64
2023-11-04T11:24:54.837Z,11.93
2023-11-04T11:28:57.489Z,12.04
2023-11-04T11:33:07.101Z,12.16
2023-11-04T11:37:08.779Z,12.30
2023-11-04T11:41:15.260Z,12.30
2023-11-04T11:45:16.964Z,12.30
2023-11-04T11:49:19.133Z,12.33
2023-11-04T11:53:22.577Z,12.33
2023-11-04T11:57:24.332Z,12.36
2023-11-04T12:01:26.087Z,12.41
2023-11-04T12:05:28.677Z,12.48
2023-11-04T12:09:31.263Z,12.41
2023-11-04T12:13:33.015Z,12.34
2023-11-04T12:17:34.711Z,12.30
2023-11-04T12:21:36.652Z,12.34
2023-11-04T12:25:39.508Z,12.36
2023-11-04T12:29:43.584Z,12.25
2023-11-04T12:33:49.357Z,12.08
2023-11-04T12:37:53.786Z,11.97
2023-11-04T12:41:55.913Z,11.84
2023-11-04T12:45:57.964Z,11.75
2023-11-04T12:50:00.137Z,11.67
2023-11-04T12:54:01.778Z,11.60
2023-11-04T12:58:03.643Z,11.51
2023-11-04T13:02:05.967Z,11.39
2023-11-04T13:06:08.408Z,11.35
2023-11-04T13:10:10.420Z,11.24
2023-11-04T13:14:14.600Z,11.12
2023-11-04T13:18:20.100Z,11.11
2023-11-04T13:22:23.437Z,11.19
2023-11-04T13:26:25.261Z,11.16
2023-11-04T13:30:26.987Z,11.12
2023-11-04T13:34:30.588Z,11.11
2023-11-04T13:38:32.243Z,11.11
2023-11-04T13:42:33.913Z,11.12
2023-11-04T13:46:35.589Z,11.06
2023-11-04T13:50:37.138Z,11.01
2023-11-04T13:54:38.778Z,10.93
2023-11-04T13:58:40.554Z,10.87
2023-11-04T14:02:43.208Z,10.88
2023-11-04T14:06:45.057Z,10.88
2023-11-04T14:10:47.059Z,10.78
2023-11-04T14:14:49.236Z,10.73
2023-11-04T14:18:50.852Z,10.68
2023-11-04T14:22:52.556Z,10.63
2023-11-04T14:26:54.258Z,10.58
2023-11-04T14:30:56.060Z,10.52
2023-11-04T14:34:57.731Z,10.47
2023-11-04T14:38:59.405Z,10.46
2023-11-04T14:43:01.858Z,10.46
2023-11-04T14:47:03.550Z,10.46
2023-11-04T14:51:05.490Z,10.42
2023-11-04T14:55:08.540Z,10.39
2023-11-04T14:59:12.352Z,10.36
2023-11-04T15:03:16.955Z,10.36
2023-11-04T15:07:19.318Z,10.32
2023-11-04T15:11:22.025Z,10.31
2023-11-04T15:15:24.831Z,10.28
2023-11-04T15:19:26.905Z,10.24
2023-11-04T15:23:29.118Z,10.22
2023-11-04T15:27:31.141Z,10.22
2023-11-04T15:31:32.850Z,10.24
2023-11-04T15:35:35.284Z,10.20
2023-11-04T15:39:37.247Z,10.24
2023-11-04T15:43:44.244Z,10.24
2023-11-04T15:47:45.941Z,10.20
2023-11-04T15:51:47.633Z,10.16
2023-11-04T15:55:49.756Z,10.17
2023-11-04T15:59:55.123Z,10.16
2023-11-04T16:03:57.111Z,10.17
2023-11-04T16:07:58.934Z,10.14
2023-11-04T16:12:01.186Z,10.11
2023-11-04T16:16:04.862Z,10.07
2023-11-04T16:20:07.188Z,10.07
2023-11-04T16:24:09.181Z,10.02
2023-11-04T16:28:11.266Z,9.98
2023-11-04T16:32:12.998Z,9.96
2023-11-04T16:36:14.681Z,9.95
2023-11-04T16:40:16.892Z,9.95
2023-11-04T16:44:24.928Z,9.95
2023-11-04T16:48:29.086Z,9.93
2023-11-04T16:52:30.737Z,9.96
2023-11-04T16:56:32.852Z,9.95
2023-11-04T17:00:38.647Z,9.95
2023-11-04T17:04:40.927Z,9.93
2023-11-04T17:08:42.821Z,9.95
2023-11-04T17:12:44.575Z,9.93
2023-11-04T17:16:46.170Z,9.95
2023-11-04T17:20:47.711Z,9.93
2023-11-04T17:24:49.930Z,9.93
2023-11-04T17:28:51.708Z,9.96
2023-11-04T17:32:55.474Z,9.99
2023-11-04T17:36:57.128Z,10.04
2023-11-04T17:40:59.309Z,10.10
2023-11-04T17:45:00.911Z,10.11
2023-11-04T17:49:02.563Z,10.16
2023-11-04T17:53:04.187Z,10.18
2023-11-04T17:57:07.209Z,10.20
2023-11-04T18:01:09.127Z,10.13
2023-11-04T18:05:10.921Z,10.10
2023-11-04T18:09:13.578Z,10.06
2023-11-04T18:13:15.243Z,10.02
2023-11-04T18:17:16.947Z,9.99
2023-11-04T18:21:18.570Z,9.98
2023-11-04T18:25:20.268Z,9.96
2023-11-04T18:29:22.083Z,9.93
2023-11-04T18:33:26.001Z,9.93
2023-11-04T18:37:29.041Z,9.96
2023-11-04T18:41:30.688Z,9.92
2023-11-04T18:45:33.500Z,9.92
2023-11-04T18:49:35.094Z,9.95
2023-11-04T18:53:36.771Z,9.99
2023-11-04T18:57:39.756Z,10.01
2023-11-04T19:01:42.942Z,10.02
2023-11-04T19:05:45.389Z,10.04
2023-11-04T19:09:47.321Z,10.06
2023-11-04T19:13:50.050Z,10.09
2023-11-04T19:17:51.765Z,10.11
2023-11-04T19:21:53.686Z,10.13
2023-11-04T19:25:55.517Z,10.17
2023-11-04T19:29:58.383Z,10.17
2023-11-04T19:34:00.069Z,10.18
2023-11-04T19:38:01.781Z,10.20
2023-11-04T19:42:03.730Z,10.20
2023-11-04T19:46:05.458Z,10.20
2023-11-04T19:50:08.993Z,10.24
2023-11-04T19:54:12.019Z,10.25
2023-11-04T19:58:13.652Z,10.26
2023-11-04T20:02:16.599Z,10.28
2023-11-04T20:06:18.533Z,10.28
2023-11-04T20:10:20.535Z,10.31
2023-11-04T20:14:22.629Z,10.32
2023-11-04T20:18:25.461Z,10.36
2023-11-04T20:22:27.502Z,10.42
2023-11-04T20:26:31.935Z,10.47
2023-11-04T20:30:37.876Z,10.54
2023-11-04T20:34:46.586Z,10.60
2023-11-04T20:38:48.389Z,10.65
2023-11-04T20:42:50.046Z,10.68
2023-11-04T20:46:51.732Z,10.72
2023-11-04T20:50:53.471Z,10.73
2023-11-04T20:59:21.227Z,10.78
2023-11-04T21:03:23.116Z,10.80
2023-11-04T21:07:26.649Z,10.80
2023-11-04T21:11:28.220Z,10.75
2023-11-04T21:15:29.940Z,10.72
2023-11-04T21:19:31.770Z,10.69
2023-11-04T21:23:33.872Z,10.68
2023-11-04T21:27:37.616Z,10.65
2023-11-04T21:31:40.757Z,10.66
2023-11-04T21:35:42.427Z,10.69
2023-11-04T21:39:44.066Z,10.72
2023-11-04T21:43:45.723Z,10.72
2023-11-04T21:47:47.603Z,10.70
2023-11-04T21:51:49.774Z,10.66
2023-11-04T21:55:51.461Z,10.63
2023-11-04T21:59:53.492Z,10.62
2023-11-04T22:03:55.244Z,10.63
2023-11-04T22:07:56.909Z,10.65
2023-11-04T22:11:58.555Z,10.70
2023-11-04T22:16:00.372Z,10.70
2023-11-04T22:20:02.266Z,10.72
2023-11-04T22:24:04.253Z,10.72
2023-11-04T22:28:06.282Z,10.72
2023-11-04T22:32:08.126Z,10.72
2023-11-04T22:36:10.915Z,10.72
2023-11-04T22:40:12.965Z,10.69
2023-11-04T22:44:14.737Z,10.66
2023-11-04T22:48:16.523Z,10.63
2023-11-04T22:52:18.665Z,10.63
2023-11-04T22:56:20.863Z,10.69
2023-11-04T23:00:39.996Z,10.73
2023-11-04T23:04:42.294Z,10.75
2023-11-04T23:08:44.467Z,10.73
2023-11-04T23:12:48.924Z,10.73
2023-11-04T23:16:50.617Z,10.72
2023-11-04T23:20:52.605Z,10.72
2023-11-04T23:24:55.133Z,10.72
2023-11-04T23:28:58.828Z,10.70
2023-11-04T23:33:01.175Z,10.70
2023-11-04T23:37:02.966Z,10.68
2023-11-04T23:41:05.088Z,10.68
2023-11-04T23:45:07.348Z,10.66
2023-11-04T23:49:09.200Z,10.65
2023-11-04T23:53:11.013Z,10.66
2023-11-04T23:57:12.718Z,10.66
